Flight Track Log - Related Links

Times and Time Zones

All times are in EST time to prevent confusion due to time zone crossing. See the N847NG flight status page for this flight to view local times or setup timezone preferences in your user account.

Time Position Orientation Groundspeed Altitude Reporting Facility
EST Latitude Longitude Course Direction KTS MPH feet Rate Location/Type
Tue 03:09:01 PM 42.1086 -80.1242 176° South 116 133 3,000  Level Cleveland Center
Tue 03:10:03 PM 42.0953 -80.0381 102° East 271 312 5,600 2,516 Climbing Cleveland Center
Tue 03:11:05 PM 42.0525 -79.9472 122° Southeast 282 325 8,200 2,419 Climbing Cleveland Center
Tue 03:12:07 PM 42.0186 -79.8667 120° Southeast 256 295 10,600 2,371 Climbing Cleveland Center
Tue 03:13:09 PM 41.9564 -79.8383 161° South 264 304 13,100 2,516 Climbing Cleveland Center
Tue 03:14:00 PM 41.6248 -80.2575 176° South  Level FlightAware Approximate
Tue 03:14:11 PM 41.8703 -79.8467 184° South 295 339 15,800  Level Cleveland Center
Tue 03:15:13 PM 41.7783 -79.8550 184° South 321 369 18,400 2,468 Climbing Cleveland Center
Tue 03:16:15 PM 41.6831 -79.8636 184° South 335 386 20,900 2,516 Climbing Cleveland Center
Tue 03:17:17 PM 41.5772 -79.8719 183° South 346 398 23,600 2,274 Climbing Cleveland Center
Tue 03:18:19 PM 41.4781 -79.8814 184° South 357 411 25,600 2,177 Climbing Cleveland Center
Tue 03:19:21 PM 41.3767 -79.8894 183° South 364 419 28,100 2,177 Climbing Cleveland Center
Tue 03:20:23 PM 41.2783 -79.8983 184° South 360 414 30,100 2,129 Climbing Cleveland Center
Tue 03:21:25 PM 41.1597 -79.9078 183° South 358 412 32,500 2,032 Climbing Cleveland Center
Tue 03:22:27 PM 41.0725 -79.9161 184° South 355 409 34,300 1,645 Climbing Cleveland Center
Tue 03:23:29 PM 40.9758 -79.9256 184° South 349 402 35,900 1,694 Climbing Cleveland Center
Tue 03:24:31 PM 40.8628 -79.9344 183° South 342 394 37,800 1,548 Climbing Cleveland Center
Tue 03:25:33 PM 40.7725 -79.9419 184° South 329 379 39,100 1,113 Climbing Cleveland Center
Tue 03:26:35 PM 40.6814 -79.9494 184° South 327 376 40,100 912 Climbing Cleveland Center
Tue 03:27:38 PM 40.5919 -79.9572 184° South 323 372 41,000 768 Climbing Cleveland Center
Tue 03:28:40 PM 40.5000 -79.9656 184° South 327 376 41,700 581 Climbing Cleveland Center
Tue 03:29:42 PM 40.4072 -79.9739 184° South 329 379 42,200 484 Climbing Cleveland Center
Tue 03:30:44 PM 40.3125 -79.9828 184° South 334 384 42,700 484 Climbing Cleveland Center
Tue 03:31:46 PM 40.2183 -79.9897 183° South 333 383 43,200 532 Climbing Cleveland Center
Tue 03:32:48 PM 40.1047 -79.9994 184° South 339 390 43,800 532 Climbing Cleveland Center
Tue 03:33:50 PM 40.0100 -80.0067 183° South 340 391 44,300 484 Climbing Cleveland Center
Tue 03:34:52 PM 39.9156 -80.0136 183° South 340 391 44,800 339 Climbing Cleveland Center
Tue 03:35:54 PM 39.8219 -80.0222 184° South 337 388 45,000 97 Climbing Cleveland Center
Tue 03:36:56 PM 39.7250 -80.0294 183° South 346 398 45,000  Level Cleveland Center
Tue 03:37:58 PM 39.6250 -80.0383 184° South 360 414 45,000  Level Cleveland Center
Tue 03:39:01 PM 39.5000 -80.0469 183° South 373 429 45,000  Level Cleveland Center
Tue 03:40:03 PM 39.3936 -80.0575 184° South 382 440 45,000  Level Cleveland Center
Tue 03:41:05 PM 39.2850 -80.0664 184° South 389 448 45,000  Level Cleveland Center
Tue 03:42:07 PM 39.1750 -80.0756 184° South 396 456 45,000  Level Cleveland Center
Tue 03:43:14 PM 39.0442 -80.0872 184° South 400 460 45,000  Level Washington Center
Tue 03:44:15 PM 38.9417 -80.0969 184° South 407 468 45,000  Level Washington Center
Tue 03:45:13 PM 38.8214 -80.1294 192° South 407 468 45,000  Level Washington Center
Tue 03:47:15 PM 38.6103 -80.2017 195° South 402 463 45,000  Level Washington Center
Tue 03:48:15 PM 38.5025 -80.2372 194° South 402 463 45,000  Level Washington Center
Tue 03:49:14 PM 38.4094 -80.2686 195° South 402 463 45,000  Level Washington Center
Tue 03:50:14 PM 38.3036 -80.3069 196° South 397 457 45,000  Level Washington Center
Tue 03:51:15 PM 38.2000 -80.3453 196° South 397 457 45,000  Level Washington Center
Tue 03:52:13 PM 38.0858 -80.3828 194° South 397 457 45,000  Level Washington Center
Tue 03:53:13 PM 37.9825 -80.4158 194° South 397 457 45,000  Level Washington Center
Tue 03:54:14 PM 37.8767 -80.4536 196° South 392 451 45,000  Level Washington Center
Tue 03:55:14 PM 37.7750 -80.4867 194° South 392 451 45,000  Level Washington Center
Tue 03:56:54 PM 37.5994 -80.5453 195° South 382 440 45,000  Level Atlanta Center
Tue 03:57:54 PM 37.4961 -80.5786 194° South 382 440 45,000  Level Atlanta Center
Tue 03:58:54 PM 37.3931 -80.6144 195° South 382 440 45,000  Level Atlanta Center
Tue 03:59:54 PM 37.3019 -80.6447 195° South 387 445 45,000  Level Atlanta Center
Tue 04:00:54 PM 37.1967 -80.6778 194° South 393 452 45,000  Level Atlanta Center
Tue 04:01:54 PM 37.0936 -80.7161 197° South 393 452 45,000  Level Atlanta Center
Tue 04:02:54 PM 36.9989 -80.7667 203° Southwest 388 447 45,000  Level Atlanta Center
Tue 04:03:54 PM 36.8964 -80.8281 206° Southwest 381 438 45,000  Level Atlanta Center
Tue 04:04:54 PM 36.8039 -80.8836 206° Southwest 376 433 45,000  Level Atlanta Center
Tue 04:05:54 PM 36.7094 -80.9417 206° Southwest 376 433 45,000  Level Atlanta Center
Tue 04:06:54 PM 36.6231 -80.9917 205° Southwest 381 438 45,000  Level Atlanta Center
Tue 04:07:54 PM 36.5328 -81.0469 206° Southwest 381 438 45,000  Level Atlanta Center
Tue 04:08:54 PM 36.4322 -81.1100 207° Southwest 371 427 45,000  Level Atlanta Center
Tue 04:09:54 PM 36.3353 -81.1650 205° Southwest 377 434 45,000  Level Atlanta Center
Tue 04:10:54 PM 36.2408 -81.2225 206° Southwest 382 440 45,000  Level Atlanta Center
Tue 04:11:54 PM 36.1442 -81.2797 206° Southwest 382 440 45,000  Level Atlanta Center
Tue 04:12:54 PM 36.0453 -81.3372 205° Southwest 382 440 45,000  Level Atlanta Center
Tue 04:13:54 PM 35.9486 -81.3967 206° Southwest 387 445 45,000  Level Atlanta Center
Tue 04:14:54 PM 35.8597 -81.4458 204° Southwest 387 445 45,000  Level Atlanta Center
Tue 04:15:54 PM 35.7589 -81.5053 206° Southwest 393 452 45,000  Level Atlanta Center
Tue 04:16:54 PM 35.6600 -81.5647 206° Southwest 387 445 45,000  Level Atlanta Center
Tue 04:17:54 PM 35.5775 -81.6131 205° Southwest 375 432 45,000  Level Atlanta Center
Tue 04:18:54 PM 35.4928 -81.6614 205° Southwest 355 409 45,000  Level Atlanta Center
Tue 04:19:54 PM 35.4042 -81.7175 207° Southwest 340 391 45,000  Level Atlanta Center
Tue 04:20:54 PM 35.3300 -81.7578 204° Southwest 334 384 45,000  Level Atlanta Center
Tue 04:21:54 PM 35.2494 -81.8033 205° Southwest 334 384 45,000  Level Atlanta Center
Tue 04:22:54 PM 35.1544 -81.8617 207° Southwest 340 391 45,000  Level Atlanta Center
Tue 04:23:54 PM 35.0656 -81.9147 206° Southwest 340 391 45,000  Level Atlanta Center
Tue 04:24:54 PM 34.9619 -81.9478 195° South 359 413 45,000 -200 Level Atlanta Center
Tue 04:25:54 PM 34.8619 -81.9556 184° South 385 443 44,600 -850 Descending Atlanta Center
Tue 04:26:54 PM 34.7475 -81.9786 189° South 410 472 43,300 -800 Descending Atlanta Center
Tue 04:27:54 PM 34.6414 -81.9989 189° South 410 472 43,000 -150 Descending Atlanta Center
Tue 04:28:54 PM 34.5331 -82.0167 188° South 405 466 43,000  Level Atlanta Center
Tue 04:29:54 PM 34.4228 -82.0367 189° South 405 466 43,000  Level Atlanta Center
Tue 04:30:54 PM 34.3125 -82.0544 188° South 405 466 43,000  Level Atlanta Center
Tue 04:31:54 PM 34.2000 -82.0747 188° South 410 472 43,000  Level Atlanta Center
Tue 04:32:54 PM 34.0878 -82.0950 189° South 410 472 43,000  Level Atlanta Center
Tue 04:33:54 PM 33.9794 -82.1125 188° South 405 466 43,000  Level Atlanta Center
Tue 04:34:54 PM 33.8692 -82.1325 189° South 405 466 43,000  Level Atlanta Center
Tue 04:35:54 PM 33.7608 -82.1472 186° South 405 466 43,000  Level Atlanta Center
Tue 04:36:54 PM 33.6547 -82.1669 189° South 405 466 43,000  Level Atlanta Center
Tue 04:37:54 PM 33.5486 -82.1869 189° South 400 460 43,000  Level Atlanta Center
Tue 04:38:54 PM 33.4425 -82.2042 188° South 395 455 43,000  Level Atlanta Center
Tue 04:39:54 PM 33.3361 -82.2236 189° South 390 449 43,000  Level Atlanta Center
Tue 04:40:54 PM 33.2258 -82.2408 187° South 390 449 43,000  Level Atlanta Center
Tue 04:41:54 PM 33.1197 -82.2581 188° South 390 449 43,000  Level Atlanta Center
Tue 04:42:54 PM 33.0114 -82.2750 187° South 390 449 43,000  Level Atlanta Center
Tue 04:43:54 PM 32.9011 -82.2947 189° South 390 449 43,000  Level Atlanta Center
Tue 04:44:54 PM 32.7947 -82.3092 187° South 390 449 43,000  Level Atlanta Center
Tue 04:47:20 PM 32.5286 -82.3531 188° South 396 456 43,000  Level Jacksonville Center
Tue 04:48:20 PM 32.4078 -82.3733 188° South 401 461 43,000  Level Jacksonville Center
Tue 04:49:20 PM 32.3117 -82.3861 186° South 395 455 43,000  Level Jacksonville Center
Tue 04:50:20 PM 32.1947 -82.3794 177° South 401 461 43,000  Level Jacksonville Center
Tue 04:51:20 PM 32.0819 -82.3728 177° South 406 467 43,000  Level Jacksonville Center
Tue 04:52:20 PM 31.9672 -82.3686 178° South 406 467 43,000  Level Jacksonville Center
Tue 04:53:20 PM 31.8544 -82.3642 178° South 406 467 43,000  Level Jacksonville Center
Tue 04:54:20 PM 31.7417 -82.3600 178° South 406 467 43,000  Level Jacksonville Center
Tue 04:55:20 PM 31.6308 -82.3558 178° South 401 461 43,000  Level Jacksonville Center
Tue 04:56:20 PM 31.5161 -82.3517 178° South 401 461 43,000  Level Jacksonville Center
Tue 04:57:20 PM 31.4094 -82.3450 177° South 401 461 43,000  Level Jacksonville Center
Tue 04:58:20 PM 31.2842 -82.3431 179° South 401 461 43,000  Level Jacksonville Center
Tue 04:59:20 PM 31.1714 -82.3389 178° South 401 461 43,000  Level Jacksonville Center
Tue 05:00:20 PM 31.0628 -82.3347 178° South 401 461 43,000  Level Jacksonville Center
Tue 05:01:20 PM 30.9500 -82.3306 178° South 401 461 43,000  Level Jacksonville Center
Tue 05:02:20 PM 30.8414 -82.3239 177° South 401 461 43,000  Level Jacksonville Center
Tue 05:03:20 PM 30.7308 -82.3197 178° South 401 461 43,000  Level Jacksonville Center
Tue 05:04:20 PM 30.6222 -82.3156 178° South 401 461 43,000  Level Jacksonville Center
Tue 05:05:20 PM 30.5219 -82.3067 176° South 401 461 43,000  Level Jacksonville Center
Tue 05:06:20 PM 30.4114 -82.3025 178° South 401 461 43,000  Level Jacksonville Center
Tue 05:07:20 PM 30.3047 -82.2958 177° South 401 461 43,000 -1,400 Level Jacksonville Center
Tue 05:08:20 PM 30.1919 -82.2942 179° South 401 461 40,200 -2,800 Descending Jacksonville Center
Tue 05:09:20 PM 30.0792 -82.2878 177° South 406 467 37,400 -3,050 Descending Jacksonville Center
Tue 05:10:20 PM 29.9519 -82.2861 179° South 406 467 34,100 -3,100 Descending Jacksonville Center
Tue 05:11:20 PM 29.8433 -82.2819 178° South 400 460 31,200 -2,850 Descending Jacksonville Center
Tue 05:12:20 PM 29.7431 -82.2731 176° South 402 463 28,400 -2,600 Descending Jacksonville Center
Tue 05:13:20 PM 29.6303 -82.2619 175° South 402 463 26,000 -1,200 Descending Jacksonville Center
Tue 05:14:20 PM 29.5217 -82.2458 173° South 402 463 26,000 -200 Level Jacksonville Center
Tue 05:15:20 PM 29.4108 -82.2275 172° South 402 463 25,600 -1,000 Descending Jacksonville Center
Tue 05:16:20 PM 29.3044 -82.2114 172° South 408 470 24,000 -800 Descending Jacksonville Center
Tue 05:17:20 PM 29.1978 -82.1956 173° South 403 464 24,000 -650 Level Jacksonville Center
Tue 05:18:20 PM 29.0892 -82.1822 174° South 398 458 22,700 -2,050 Descending Jacksonville Center
Tue 05:19:20 PM 28.9889 -82.1639 171° South 387 445 19,900 -2,900 Descending Jacksonville Center
Tue 05:20:20 PM 28.8803 -82.1481 173° South 368 423 16,900 -2,900 Descending Jacksonville Center
Tue 05:21:20 PM 28.7883 -82.1344 173° South 356 410 14,100 -1,427 Descending Jacksonville Center
Tue 05:23:04 PM 28.6333 -82.1167 174° South 319 367 13,000 -949 Descending Tampa TRACON
Tue 05:23:58 PM 28.5500 -82.1000 170° South 325 374 11,600 -1,053 Descending Tampa TRACON
Tue 05:24:58 PM 28.4667 -82.0833 170° South 309 356 11,000 -300 Descending Tampa TRACON
Tue 05:25:58 PM 28.3833 -82.0667 170° South 314 361 11,000  Level Tampa TRACON
Tue 05:26:58 PM 28.2833 -82.0667 180° South 314 361 11,000  Level Tampa TRACON
Tue 05:28:04 PM 28.2000 -82.0500 170° South 311 358 11,000  Level Tampa TRACON
Tue 05:29:04 PM 28.1167 -82.0333 170° South 317 365 11,000 -579 Level Tampa TRACON
Tue 05:29:58 PM 28.0500 -82.0500 192° South 280 322 9,900 -1,500 Descending Tampa TRACON
Tue 05:31:04 PM 27.9667 -82.1000 208° Southwest 265 305 8,000 -1,700 Descending Tampa TRACON
Tue 05:31:58 PM 27.9167 -82.1500 221° Southwest 263 303 6,500 -1,053 Descending Tampa TRACON
Tue 05:32:58 PM 27.8667 -82.1833 211° Southwest 247 284 6,000 -250 Descending Tampa TRACON
Tue 05:33:58 PM 27.8000 -82.2333 214° Southwest 245 282 6,000  Level Tampa TRACON
Tue 05:34:52 PM 27.7500 -82.2833 222° Southwest 255 293 6,000  Level Tampa TRACON
Tue 05:35:58 PM 27.6833 -82.3333 214° Southwest 259 298 6,000  Level Tampa TRACON
Tue 05:36:58 PM 27.6333 -82.3667 211° Southwest 257 296 6,000 -942 Level Tampa TRACON
Tue 05:37:59 PM 27.6000 -82.4500 246° West 254 292 4,100 -1,722 Descending Tampa TRACON
Tue 05:38:53 PM 27.5500 -82.5000 222° Southwest 234 269 2,700 -1,115 Descending Tampa TRACON
Tue 05:39:52 PM 27.5000 -82.5333 211° Southwest 200 230 2,000 -632 Descending Tampa TRACON
Tue 05:40:47 PM 27.4667 -82.5667 222° Southwest 156 180 1,500 -614 Descending Tampa TRACON
Tue 05:41:59 PM 27.4333 -82.5833 204° Southwest 101 116 700 -667 Descending Tampa TRACON

Login

Don't have an account? Register now (free) for customized features, flight alerts, and more!